Terminal Aerodrome Forecast
Issued by NWS

Home | Current Version | Previous Version | Text Only | Print | Product List | Glossary On
Versions: 1 2 3 4 5 6 7 8 9 10 11 12 13
000
FTUS41 KCLE 290542
TAFFDY
TAF
KFDY 290542Z 2906/3006 14005KT P6SM SCT120 OVC250
     FM291300 18006KT P6SM BKN120
     FM291900 21008KT P6SM BKN050 OVC120
     FM292300 12005KT P6SM VCTS BKN040CB OVC100
      TEMPO 3000/3002 2SM -TSRA SCT025 OVC040CB
     FM300300 15004KT P6SM SCT035 OVC100=

USA.gov is the U.S. government's official web portal to all federal, state and local government web resources and services.